createdAt,value
2022-07-29T00:00:53.277Z,4.1
2022-07-29T00:02:54.292Z,4.1
2022-07-29T00:04:55.411Z,4.1
2022-07-29T00:06:56.700Z,4.1
2022-07-29T00:10:59.389Z,4.1
2022-07-29T00:13:00.490Z,4.1
2022-07-29T00:15:01.428Z,4.1
2022-07-29T00:17:03.311Z,4.1
2022-07-29T00:21:05.884Z,4.1
2022-07-29T00:23:07.457Z,4.1
2022-07-29T00:25:09.280Z,4.1
2022-07-29T00:27:10.572Z,4.1
2022-07-29T00:29:33.385Z,4.1
2022-07-29T00:31:13.818Z,4.1
2022-07-29T00:33:15.520Z,4.1
2022-07-29T00:37:17.982Z,4.1
2022-07-29T00:39:19.375Z,4.1
2022-07-29T00:41:20.473Z,4.1
2022-07-29T00:43:21.606Z,4.1
2022-07-29T00:45:23.242Z,4.1
2022-07-29T00:47:24.584Z,4.1
2022-07-29T00:49:26.369Z,4.1
2022-07-29T00:53:28.940Z,4.1
2022-07-29T00:55:29.967Z,4.1
2022-07-29T00:57:30.924Z,4.1
2022-07-29T00:59:34.482Z,4.09
2022-07-29T01:01:34.155Z,4.1
2022-07-29T01:03:35.709Z,4.09
2022-07-29T01:07:38.895Z,4.09
2022-07-29T01:09:46.579Z,4.09
2022-07-29T01:11:41.246Z,4.1
2022-07-29T01:13:42.687Z,4.09
2022-07-29T01:15:48.803Z,4.09
2022-07-29T01:19:46.603Z,4.09
2022-07-29T01:21:48.133Z,4.09
2022-07-29T01:25:53.301Z,4.09
2022-07-29T01:27:53.279Z,4.09
2022-07-29T01:29:54.563Z,4.09
2022-07-29T01:31:59.667Z,4.09
2022-07-29T01:35:58.779Z,4.09
2022-07-29T01:37:59.775Z,4.09
2022-07-29T01:40:01.630Z,4.09
2022-07-29T01:42:03.488Z,4.09
2022-07-29T01:46:06.694Z,4.08
2022-07-29T01:48:08.071Z,4.09
2022-07-29T01:50:09.414Z,4.09
2022-07-29T01:52:10.414Z,4.08
2022-07-29T01:56:13.452Z,4.09
2022-07-29T01:58:15.130Z,4.09
2022-07-29T02:02:17.559Z,4.08
2022-07-29T02:04:19.145Z,4.08
2022-07-29T02:08:21.794Z,4.08
2022-07-29T02:10:25.705Z,4.08
2022-07-29T02:12:24.697Z,4.08
2022-07-29T02:14:25.607Z,4.08
2022-07-29T02:18:28.045Z,4.08
2022-07-29T02:20:29.306Z,4.08
2022-07-29T02:22:31.187Z,4.08
2022-07-29T02:24:32.728Z,4.08
2022-07-29T02:26:34.399Z,4.08
2022-07-29T02:28:36.093Z,4.08
2022-07-29T02:30:37.043Z,4.08
2022-07-29T02:34:39.992Z,4.08
2022-07-29T02:36:41.627Z,4.08
2022-07-29T02:38:43.147Z,4.08
2022-07-29T02:40:44.213Z,4.08
2022-07-29T02:44:46.802Z,4.08
2022-07-29T02:46:47.844Z,4.08
2022-07-29T02:48:49.329Z,4.08
2022-07-29T02:50:51.024Z,4.08
2022-07-29T02:52:52.460Z,4.08
2022-07-29T02:54:53.765Z,4.08
2022-07-29T02:56:55.414Z,4.08
2022-07-29T03:00:57.355Z,4.08
2022-07-29T03:02:58.508Z,4.08
2022-07-29T03:04:59.577Z,4.08
2022-07-29T03:07:00.592Z,4.08
2022-07-29T03:09:02.094Z,4.08
2022-07-29T03:11:03.559Z,4.08
2022-07-29T03:13:04.580Z,4.08
2022-07-29T03:17:07.896Z,4.07
2022-07-29T03:19:09.055Z,4.07
2022-07-29T03:21:10.950Z,4.07
2022-07-29T03:23:12.256Z,4.07
2022-07-29T03:25:14.160Z,4.07
2022-07-29T03:29:16.730Z,4.07
2022-07-29T03:33:19.430Z,4.07
2022-07-29T03:35:21.220Z,4.07
2022-07-29T03:37:22.339Z,4.07
2022-07-29T03:39:23.982Z,4.07
2022-07-29T03:41:25.141Z,4.07
2022-07-29T03:43:26.240Z,4.07
2022-07-29T03:45:27.889Z,4.07
2022-07-29T03:47:35.545Z,4.07
2022-07-29T03:49:31.355Z,4.07
2022-07-29T03:51:33.592Z,4.07
2022-07-29T03:53:33.918Z,4.07
2022-07-29T03:55:35.476Z,4.07
2022-07-29T03:59:38.360Z,4.06
2022-07-29T04:01:39.902Z,4.07
2022-07-29T04:03:41.051Z,4.06
2022-07-29T04:05:42.710Z,4.06
2022-07-29T04:09:46.454Z,4.07
2022-07-29T04:11:56.944Z,4.07
2022-07-29T04:13:49.459Z,4.06
2022-07-29T04:15:50.737Z,4.06
2022-07-29T04:17:51.869Z,4.06
2022-07-29T04:19:52.887Z,4.07
2022-07-29T04:21:54.341Z,4.06
2022-07-29T04:25:57.432Z,4.06
2022-07-29T04:27:59.260Z,4.06
2022-07-29T04:30:00.536Z,4.06
2022-07-29T04:32:01.989Z,4.06
2022-07-29T04:34:03.048Z,4.06
2022-07-29T04:36:04.077Z,4.06
2022-07-29T04:38:05.421Z,4.06
2022-07-29T04:42:08.684Z,4.06
2022-07-29T04:44:10.397Z,4.06
2022-07-29T04:46:11.796Z,4.06
2022-07-29T04:48:13.556Z,4.06
2022-07-29T04:50:14.604Z,4.06
2022-07-29T04:52:15.854Z,4.06
2022-07-29T04:56:18.391Z,4.06
2022-07-29T05:00:21.112Z,4.06
2022-07-29T05:02:22.215Z,4.06
2022-07-29T05:04:23.548Z,4.06
2022-07-29T05:06:25.092Z,4.06
2022-07-29T05:08:26.141Z,4.07
2022-07-29T05:09:09.887Z,4.07
2022-07-29T05:11:11.386Z,4.07
2022-07-29T05:13:12.180Z,4.07
2022-07-29T05:15:13.238Z,4.07
2022-07-29T05:17:14.248Z,4.07
2022-07-29T05:19:15.199Z,4.07
2022-07-29T05:23:17.993Z,4.08
2022-07-29T05:25:19.276Z,4.08
2022-07-29T05:27:20.890Z,4.08
2022-07-29T05:29:41.260Z,4.08
2022-07-29T05:31:23.989Z,4.09
2022-07-29T05:33:34.568Z,4.09
2022-07-29T05:35:25.905Z,4.09
2022-07-29T05:39:47.053Z,4.09
2022-07-29T05:41:29.728Z,4.1
2022-07-29T05:43:30.884Z,4.1
2022-07-29T05:45:32.290Z,4.11
2022-07-29T05:49:35.095Z,4.11
2022-07-29T05:51:36.356Z,4.12
2022-07-29T05:55:39.475Z,4.13
2022-07-29T05:57:40.916Z,4.13
2022-07-29T05:59:41.833Z,4.14
2022-07-29T06:01:43.662Z,4.14
2022-07-29T06:05:45.594Z,4.14
2022-07-29T06:07:50.079Z,4.15
2022-07-29T06:09:48.101Z,4.15
2022-07-29T06:11:49.449Z,4.15
2022-07-29T06:13:51.084Z,4.16
2022-07-29T06:15:52.098Z,4.16
2022-07-29T06:17:59.544Z,4.16
2022-07-29T06:21:55.737Z,4.16
2022-07-29T06:23:57.530Z,4.16
2022-07-29T06:25:58.791Z,4.17
2022-07-29T06:28:00.406Z,4.17
2022-07-29T06:32:03.370Z,4.17
2022-07-29T06:34:05.534Z,4.17
2022-07-29T06:36:07.069Z,4.18
2022-07-29T06:38:13.803Z,4.18
2022-07-29T06:40:09.332Z,4.18
2022-07-29T06:42:10.772Z,4.18
2022-07-29T06:44:11.658Z,4.18
2022-07-29T06:48:14.348Z,4.19
2022-07-29T06:50:15.508Z,4.19
2022-07-29T06:54:18.277Z,4.19
2022-07-29T06:56:19.864Z,4.19
2022-07-29T06:58:20.883Z,4.19
2022-07-29T07:00:22.223Z,4.19
2022-07-29T07:04:25.455Z,4.19
2022-07-29T07:06:26.936Z,4.19
2022-07-29T07:08:28.096Z,4.19
2022-07-29T07:12:29.884Z,4.2
2022-07-29T07:14:31.569Z,4.2
2022-07-29T07:16:33.259Z,4.19
2022-07-29T07:20:36.006Z,4.19
2022-07-29T07:22:38.852Z,4.2
2022-07-29T07:24:38.217Z,4.2
2022-07-29T07:26:39.895Z,4.2
2022-07-29T07:30:43.168Z,4.2
2022-07-29T07:32:44.478Z,4.2
2022-07-29T07:34:45.836Z,4.2
2022-07-29T07:36:47.315Z,4.2
2022-07-29T07:38:48.928Z,4.2
2022-07-29T07:40:51.514Z,4.2
2022-07-29T07:42:52.405Z,4.2
2022-07-29T07:46:55.368Z,4.19
2022-07-29T07:48:56.499Z,4.19
2022-07-29T07:50:58.120Z,4.19
2022-07-29T07:52:59.138Z,4.19
2022-07-29T07:55:00.728Z,4.19
2022-07-29T07:57:02.263Z,4.19
2022-07-29T07:59:03.911Z,4.19
2022-07-29T08:01:05.510Z,4.19
2022-07-29T08:05:08.459Z,4.19
2022-07-29T08:07:09.832Z,4.18
2022-07-29T08:09:28.036Z,4.19
2022-07-29T08:13:14.249Z,4.19
2022-07-29T08:15:15.499Z,4.19
2022-07-29T08:19:18.879Z,4.18
2022-07-29T08:21:20.252Z,4.18
2022-07-29T08:23:21.150Z,4.18
2022-07-29T08:25:22.249Z,4.18
2022-07-29T08:29:25.129Z,4.18
2022-07-29T08:31:26.604Z,4.18
2022-07-29T08:33:27.835Z,4.18
2022-07-29T08:35:32.172Z,4.18
2022-07-29T08:37:30.803Z,4.18
2022-07-29T08:39:32.342Z,4.18
2022-07-29T08:41:33.212Z,4.18
2022-07-29T08:45:35.125Z,4.18
2022-07-29T08:47:36.157Z,4.18
2022-07-29T08:49:36.971Z,4.18
2022-07-29T08:51:46.573Z,4.18
2022-07-29T08:53:39.735Z,4.18
2022-07-29T08:55:40.838Z,4.17
2022-07-29T08:57:43.453Z,4.18
2022-07-29T08:59:43.306Z,4.17
2022-07-29T09:01:45.072Z,4.17
2022-07-29T09:03:45.069Z,4.18
2022-07-29T09:05:48.165Z,4.17
2022-07-29T09:07:47.675Z,4.18
2022-07-29T09:09:49.317Z,4.17
2022-07-29T09:11:50.097Z,4.17
2022-07-29T09:17:53.264Z,4.17
2022-07-29T09:19:54.767Z,4.17
2022-07-29T09:21:56.132Z,4.17
2022-07-29T09:23:57.038Z,4.17
2022-07-29T09:27:59.566Z,4.17
2022-07-29T09:30:00.514Z,4.17
2022-07-29T09:32:01.723Z,4.17
2022-07-29T09:34:02.586Z,4.17
2022-07-29T09:36:04.049Z,4.17
2022-07-29T09:38:05.275Z,4.17
2022-07-29T09:40:10.171Z,4.17
2022-07-29T09:44:09.029Z,4.17
2022-07-29T09:46:12.150Z,4.17
2022-07-29T09:48:12.252Z,4.17
2022-07-29T09:50:14.558Z,4.17
2022-07-29T09:54:17.374Z,4.17
2022-07-29T09:56:18.417Z,4.17
2022-07-29T10:00:21.098Z,4.17
2022-07-29T10:02:23.832Z,4.17
2022-07-29T10:04:23.707Z,4.17
2022-07-29T10:06:24.529Z,4.17
2022-07-29T10:10:27.553Z,4.16
2022-07-29T10:12:28.319Z,4.17
2022-07-29T10:14:29.696Z,4.17
2022-07-29T10:16:31.457Z,4.16
2022-07-29T10:18:32.878Z,4.17
2022-07-29T10:20:34.280Z,4.17
2022-07-29T10:24:36.587Z,4.17
2022-07-29T10:26:37.869Z,4.17
2022-07-29T10:28:38.936Z,4.16
2022-07-29T10:32:41.735Z,4.16
2022-07-29T10:34:43.687Z,4.16
2022-07-29T10:36:45.081Z,4.16
2022-07-29T10:38:47.167Z,4.16
2022-07-29T10:40:47.117Z,4.16
2022-07-29T10:42:48.027Z,4.16
2022-07-29T10:44:49.376Z,4.16
2022-07-29T10:46:50.267Z,4.16
2022-07-29T10:48:51.183Z,4.16
2022-07-29T10:52:53.785Z,4.16
2022-07-29T10:54:55.182Z,4.16
2022-07-29T10:56:55.956Z,4.16
2022-07-29T10:58:57.376Z,4.16
2022-07-29T11:00:58.287Z,4.16
2022-07-29T11:02:59.323Z,4.16
2022-07-29T11:05:00.605Z,4.16
2022-07-29T11:09:02.686Z,4.16
2022-07-29T11:11:03.619Z,4.16
2022-07-29T11:13:05.353Z,4.16
2022-07-29T11:15:06.787Z,4.16
2022-07-29T11:17:07.891Z,4.16
2022-07-29T11:19:09.019Z,4.16
2022-07-29T11:21:10.891Z,4.16
2022-07-29T11:25:13.618Z,4.16
2022-07-29T11:27:17.973Z,4.16
2022-07-29T11:29:16.552Z,4.16
2022-07-29T11:31:17.759Z,4.16
2022-07-29T11:35:27.706Z,4.16
2022-07-29T11:37:27.851Z,4.15
2022-07-29T11:41:23.565Z,4.15
2022-07-29T11:43:25.136Z,4.15
2022-07-29T11:45:42.274Z,4.15
2022-07-29T11:47:28.711Z,4.15
2022-07-29T11:51:32.660Z,4.15
2022-07-29T11:53:32.719Z,4.15
2022-07-29T11:54:16.136Z,4.15
2022-07-29T11:56:17.178Z,4.16
2022-07-29T11:58:17.921Z,4.15
2022-07-29T12:02:36.323Z,4.15
2022-07-29T12:04:20.963Z,4.15
2022-07-29T12:06:22.202Z,4.15
2022-07-29T12:10:29.715Z,4.15
2022-07-29T12:12:26.190Z,4.15
2022-07-29T12:14:27.410Z,4.15
2022-07-29T12:16:29.342Z,4.15
2022-07-29T12:18:30.419Z,4.15
2022-07-29T12:20:31.838Z,4.15
2022-07-29T12:22:33.108Z,4.15
2022-07-29T12:24:35.605Z,4.15
2022-07-29T12:28:38.197Z,4.14
2022-07-29T12:30:39.799Z,4.15
2022-07-29T12:32:41.475Z,4.14
2022-07-29T12:34:42.519Z,4.14
2022-07-29T12:36:43.506Z,4.14
2022-07-29T12:38:44.753Z,4.14
2022-07-29T12:40:46.027Z,4.14
2022-07-29T12:44:48.230Z,4.14
2022-07-29T12:46:49.537Z,4.14
2022-07-29T12:48:50.905Z,4.14
2022-07-29T12:50:52.855Z,4.14
2022-07-29T12:52:53.760Z,4.14
2022-07-29T12:54:55.256Z,4.14
2022-07-29T12:57:05.345Z,4.14
2022-07-29T12:58:57.551Z,4.14
2022-07-29T13:00:58.650Z,4.14
2022-07-29T13:03:00.133Z,4.14
2022-07-29T13:05:01.167Z,4.14
2022-07-29T13:07:02.011Z,4.14
2022-07-29T13:09:03.178Z,4.17
2022-07-29T13:11:04.486Z,4.17
2022-07-29T13:13:05.249Z,4.17
2022-07-29T13:15:06.300Z,4.16
2022-07-29T13:17:07.476Z,4.16
2022-07-29T13:19:08.572Z,4.16
2022-07-29T13:21:09.456Z,4.16
2022-07-29T13:23:10.696Z,4.16
2022-07-29T13:27:13.408Z,4.16
2022-07-29T13:29:15.083Z,4.16
2022-07-29T13:33:18.364Z,4.15
2022-07-29T13:35:20.145Z,4.15
2022-07-29T13:37:21.905Z,4.15
2022-07-29T13:41:24.210Z,4.15
2022-07-29T13:43:25.941Z,4.16
2022-07-29T13:45:28.994Z,4.16
2022-07-29T13:47:31.950Z,4.16
2022-07-29T13:49:29.945Z,4.16
2022-07-29T13:53:32.721Z,4.18
2022-07-29T13:55:33.668Z,4.18
2022-07-29T13:57:35.468Z,4.18
2022-07-29T13:59:37.213Z,4.18
2022-07-29T14:01:38.597Z,4.17
2022-07-29T14:05:41.631Z,4.17
2022-07-29T14:09:45.035Z,4.17
2022-07-29T14:11:46.389Z,4.17
2022-07-29T14:13:47.515Z,4.17
2022-07-29T14:15:49.283Z,4.16
2022-07-29T14:17:50.462Z,4.16
2022-07-29T14:19:51.472Z,4.16
2022-07-29T14:21:53.233Z,4.16
2022-07-29T14:25:55.141Z,4.16
2022-07-29T14:27:56.791Z,4.16
2022-07-29T14:29:58.450Z,4.16
2022-07-29T14:32:00.021Z,4.16
2022-07-29T14:34:02.797Z,4.16
2022-07-29T14:36:02.857Z,4.16
2022-07-29T14:38:04.670Z,4.16
2022-07-29T14:42:07.293Z,4.16
2022-07-29T14:44:08.712Z,4.16
2022-07-29T14:46:10.509Z,4.16
2022-07-29T14:48:11.728Z,4.16
2022-07-29T14:52:15.045Z,4.16
2022-07-29T14:54:16.353Z,4.16
2022-07-29T14:56:35.857Z,4.16
2022-07-29T14:58:19.702Z,4.16
2022-07-29T15:00:21.355Z,4.16
2022-07-29T15:02:25.601Z,4.16
2022-07-29T15:04:24.130Z,4.16
2022-07-29T15:08:26.646Z,4.16
2022-07-29T15:10:28.337Z,4.16
2022-07-29T15:12:29.321Z,4.16
2022-07-29T15:14:30.918Z,4.16
2022-07-29T15:16:31.862Z,4.17
2022-07-29T15:20:34.711Z,4.17
2022-07-29T15:24:37.489Z,4.17
2022-07-29T15:26:38.583Z,4.17
2022-07-29T15:28:40.472Z,4.17
2022-07-29T15:30:41.943Z,4.17
2022-07-29T15:34:44.442Z,4.16
2022-07-29T15:36:53.047Z,4.16
2022-07-29T15:40:48.892Z,4.16
2022-07-29T15:42:49.790Z,4.17
2022-07-29T15:44:51.068Z,4.17
2022-07-29T15:46:52.470Z,4.17
2022-07-29T15:50:55.747Z,4.17
2022-07-29T15:52:57.234Z,4.17
2022-07-29T15:54:58.111Z,4.19
2022-07-29T15:57:00.090Z,4.17
2022-07-29T15:59:00.920Z,4.17
2022-07-29T16:01:02.284Z,4.17
2022-07-29T16:03:03.815Z,4.17
2022-07-29T16:07:06.088Z,4.17
2022-07-29T16:09:07.162Z,4.17
2022-07-29T16:11:08.876Z,4.17
2022-07-29T16:13:10.682Z,4.17
2022-07-29T16:15:12.500Z,4.16
2022-07-29T16:17:14.622Z,4.17
2022-07-29T16:21:16.305Z,4.16
2022-07-29T16:25:19.516Z,4.16
2022-07-29T16:29:21.899Z,4.16
2022-07-29T16:31:23.496Z,4.16
2022-07-29T16:33:24.448Z,4.16
2022-07-29T16:35:25.867Z,4.16
2022-07-29T16:37:28.085Z,4.16
2022-07-29T16:39:28.556Z,4.16
2022-07-29T16:41:29.504Z,4.16
2022-07-29T16:43:30.911Z,4.16
2022-07-29T16:45:37.820Z,4.16
2022-07-29T16:49:34.986Z,4.16
2022-07-29T16:51:36.392Z,4.16
2022-07-29T16:53:37.376Z,4.16
2022-07-29T16:55:39.044Z,4.16
2022-07-29T16:57:40.033Z,4.16
2022-07-29T16:59:43.190Z,4.16
2022-07-29T17:01:42.770Z,4.16
2022-07-29T17:05:50.583Z,4.16
2022-07-29T17:07:45.976Z,4.16
2022-07-29T17:11:52.186Z,4.16
2022-07-29T17:15:50.446Z,4.16
2022-07-29T17:17:54.734Z,4.16
2022-07-29T17:19:53.248Z,4.15
2022-07-29T17:22:01.112Z,4.15
2022-07-29T17:23:56.254Z,4.15
2022-07-29T17:25:57.803Z,4.15
2022-07-29T17:28:00.656Z,4.16
2022-07-29T17:32:01.814Z,4.16
2022-07-29T17:34:02.845Z,4.15
2022-07-29T17:36:04.241Z,4.15
2022-07-29T17:38:05.507Z,4.15
2022-07-29T17:40:07.190Z,4.15
2022-07-29T17:42:08.537Z,4.15
2022-07-29T17:44:10.352Z,4.15
2022-07-29T17:48:12.797Z,4.15
2022-07-29T17:50:14.191Z,4.15
2022-07-29T17:52:15.089Z,4.15
2022-07-29T17:54:16.864Z,4.15
2022-07-29T17:56:18.442Z,4.15
2022-07-29T17:58:20.131Z,4.15
2022-07-29T18:00:21.283Z,4.15
2022-07-29T18:02:22.646Z,4.15
2022-07-29T18:04:23.975Z,4.15
2022-07-29T18:06:25.734Z,4.15
2022-07-29T18:08:26.960Z,4.15
2022-07-29T18:10:28.723Z,4.14
2022-07-29T18:12:30.161Z,4.15
2022-07-29T18:16:32.937Z,4.15
2022-07-29T18:20:36.195Z,4.14
2022-07-29T18:22:37.692Z,4.14
2022-07-29T18:24:39.068Z,4.14
2022-07-29T18:26:40.569Z,4.14
2022-07-29T18:30:43.674Z,4.14
2022-07-29T18:32:59.401Z,4.14
2022-07-29T18:34:46.702Z,4.14
2022-07-29T18:36:47.670Z,4.14
2022-07-29T18:39:33.095Z,4.14
2022-07-29T18:41:34.119Z,4.14
2022-07-29T18:43:35.306Z,4.14
2022-07-29T18:45:36.879Z,4.14
2022-07-29T18:47:37.870Z,4.14
2022-07-29T18:51:40.322Z,4.14
2022-07-29T18:53:42.022Z,4.14
2022-07-29T18:55:43.585Z,4.14
2022-07-29T18:57:55.570Z,4.14
2022-07-29T18:59:46.570Z,4.14
2022-07-29T19:01:47.771Z,4.14
2022-07-29T19:03:49.610Z,4.14
2022-07-29T19:07:52.489Z,4.14
2022-07-29T19:09:53.792Z,4.14
2022-07-29T19:11:56.332Z,4.14
2022-07-29T19:13:56.679Z,4.14
2022-07-29T19:15:58.241Z,4.14
2022-07-29T19:18:01.236Z,4.14
2022-07-29T19:20:00.778Z,4.14
2022-07-29T19:24:07.526Z,4.13
2022-07-29T19:26:05.375Z,4.14
2022-07-29T19:28:06.580Z,4.14
2022-07-29T19:30:07.972Z,4.13
2022-07-29T19:34:10.366Z,4.14
2022-07-29T19:36:12.093Z,4.13
2022-07-29T19:40:15.438Z,4.13
2022-07-29T19:42:16.938Z,4.13
2022-07-29T19:44:17.853Z,4.13
2022-07-29T19:46:19.129Z,4.13
2022-07-29T19:50:22.215Z,4.13
2022-07-29T19:52:23.194Z,4.13
2022-07-29T19:54:24.137Z,4.13
2022-07-29T19:56:25.208Z,4.13
2022-07-29T19:58:27.029Z,4.13
2022-07-29T20:00:27.961Z,4.13
2022-07-29T20:02:29.007Z,4.13
2022-07-29T20:06:31.320Z,4.13
2022-07-29T20:08:32.302Z,4.12
2022-07-29T20:12:35.041Z,4.13
2022-07-29T20:16:37.406Z,4.13
2022-07-29T20:18:38.475Z,4.13
2022-07-29T20:20:39.438Z,4.13
2022-07-29T20:22:40.315Z,4.12
2022-07-29T20:24:41.636Z,4.12
2022-07-29T20:26:42.647Z,4.13
2022-07-29T20:28:47.625Z,4.13
2022-07-29T20:32:46.733Z,4.12
2022-07-29T20:34:48.006Z,4.12
2022-07-29T20:36:57.925Z,4.12
2022-07-29T20:38:50.954Z,4.12
2022-07-29T20:40:52.000Z,4.12
2022-07-29T20:42:53.012Z,4.12
2022-07-29T20:44:54.395Z,4.12
2022-07-29T20:48:56.173Z,4.12
2022-07-29T20:50:57.862Z,4.12
2022-07-29T20:52:58.748Z,4.12
2022-07-29T20:55:00.282Z,4.12
2022-07-29T20:57:02.027Z,4.12
2022-07-29T20:59:02.825Z,4.12
2022-07-29T21:01:04.334Z,4.12
2022-07-29T21:05:07.377Z,4.12
2022-07-29T21:07:08.958Z,4.12
2022-07-29T21:09:10.299Z,4.12
2022-07-29T21:11:11.857Z,4.12
2022-07-29T21:15:14.521Z,4.12
2022-07-29T21:17:16.163Z,4.12
2022-07-29T21:19:17.199Z,4.12
2022-07-29T21:21:18.831Z,4.12
2022-07-29T21:23:19.863Z,4.12
2022-07-29T21:25:21.244Z,4.12
2022-07-29T21:27:23.366Z,4.12
2022-07-29T21:31:25.989Z,4.12
2022-07-29T21:33:27.171Z,4.12
2022-07-29T21:35:30.347Z,4.12
2022-07-29T21:37:29.411Z,4.12
2022-07-29T21:39:31.059Z,4.11
2022-07-29T21:41:32.072Z,4.11
2022-07-29T21:43:33.517Z,4.12
2022-07-29T21:45:34.930Z,4.11
2022-07-29T21:47:36.764Z,4.11
2022-07-29T21:49:38.052Z,4.11
2022-07-29T21:51:39.054Z,4.11
2022-07-29T21:53:40.497Z,4.11
2022-07-29T21:57:42.844Z,4.11
2022-07-29T21:59:43.802Z,4.11
2022-07-29T22:01:45.205Z,4.11
2022-07-29T22:03:46.438Z,4.11
2022-07-29T22:05:47.435Z,4.11
2022-07-29T22:09:50.713Z,4.11
2022-07-29T22:13:53.388Z,4.11
2022-07-29T22:15:54.361Z,4.11
2022-07-29T22:17:55.581Z,4.11
2022-07-29T22:19:57.165Z,4.11
2022-07-29T22:21:58.247Z,4.11
2022-07-29T22:26:01.761Z,4.11
2022-07-29T22:30:05.104Z,4.1
2022-07-29T22:32:06.535Z,4.1
2022-07-29T22:34:08.229Z,4.11
2022-07-29T22:36:09.228Z,4.1
2022-07-29T22:38:10.800Z,4.1
2022-07-29T22:40:11.950Z,4.1
2022-07-29T22:42:12.755Z,4.1
2022-07-29T22:46:15.182Z,4.1
2022-07-29T22:48:16.781Z,4.1
2022-07-29T22:50:18.117Z,4.1
2022-07-29T22:52:19.778Z,4.1
2022-07-29T22:54:21.518Z,4.1
2022-07-29T22:56:22.964Z,4.1
2022-07-29T22:58:24.037Z,4.1
2022-07-29T23:00:24.982Z,4.1
2022-07-29T23:02:26.205Z,4.1
2022-07-29T23:04:27.842Z,4.1
2022-07-29T23:06:28.887Z,4.1
2022-07-29T23:08:30.651Z,4.1
2022-07-29T23:12:33.582Z,4.1
2022-07-29T23:14:35.372Z,4.1
2022-07-29T23:16:36.527Z,4.1
2022-07-29T23:18:38.159Z,4.1
2022-07-29T23:22:40.563Z,4.1
2022-07-29T23:24:42.303Z,4.1
2022-07-29T23:28:45.419Z,4.1
2022-07-29T23:30:47.135Z,4.1
2022-07-29T23:32:48.368Z,4.1
2022-07-29T23:34:49.277Z,4.1
2022-07-29T23:36:51.142Z,4.1
2022-07-29T23:38:52.052Z,4.1
2022-07-29T23:40:53.591Z,4.1
2022-07-29T23:42:54.757Z,4.1
2022-07-29T23:46:57.779Z,4.1
2022-07-29T23:48:59.060Z,4.1
2022-07-29T23:51:00.297Z,4.09
2022-07-29T23:53:01.661Z,4.09
2022-07-29T23:55:36.174Z,4.09
2022-07-29T23:57:04.773Z,4.09
